sensor_id;sensor_type;location;lat;lon;timestamp;temperature;humidity
34434;DHT22;34290;48.562;13.384;2023-03-17T00:02:49;-2.50;99.90
34434;DHT22;34290;48.562;13.384;2023-03-17T00:05:21;-2.30;99.90
34434;DHT22;34290;48.562;13.384;2023-03-17T00:07:51;-2.40;99.90
34434;DHT22;34290;48.562;13.384;2023-03-17T00:10:20;-2.80;99.90
34434;DHT22;34290;48.562;13.384;2023-03-17T00:12:49;-2.40;99.90
34434;DHT22;34290;48.562;13.384;2023-03-17T00:15:16;-2.40;99.90
34434;DHT22;34290;48.562;13.384;2023-03-17T00:17:44;-2.40;99.90
34434;DHT22;34290;48.562;13.384;2023-03-17T00:20:23;-2.30;99.90
34434;DHT22;34290;48.562;13.384;2023-03-17T00:22:53;-2.40;99.90
34434;DHT22;34290;48.562;13.384;2023-03-17T00:25:24;-2.40;99.90
34434;DHT22;34290;48.562;13.384;2023-03-17T00:27:52;-2.40;99.90
34434;DHT22;34290;48.562;13.384;2023-03-17T00:30:20;-2.30;99.90
34434;DHT22;34290;48.562;13.384;2023-03-17T00:32:48;-2.40;99.90
34434;DHT22;34290;48.562;13.384;2023-03-17T00:35:19;-2.50;99.90
34434;DHT22;34290;48.562;13.384;2023-03-17T00:45:12;-2.50;99.90
34434;DHT22;34290;48.562;13.384;2023-03-17T00:47:40;-2.50;99.90
34434;DHT22;34290;48.562;13.384;2023-03-17T00:50:11;-2.60;99.90
34434;DHT22;34290;48.562;13.384;2023-03-17T00:55:08;-2.50;99.90
34434;DHT22;34290;48.562;13.384;2023-03-17T00:57:37;-2.60;99.90
34434;DHT22;34290;48.562;13.384;2023-03-17T01:00:16;-2.50;99.90
34434;DHT22;34290;48.562;13.384;2023-03-17T01:02:43;-2.40;99.90
34434;DHT22;34290;48.562;13.384;2023-03-17T01:05:10;-3.10;99.90
34434;DHT22;34290;48.562;13.384;2023-03-17T01:07:38;-2.50;99.90
34434;DHT22;34290;48.562;13.384;2023-03-17T01:10:11;-2.50;99.90
34434;DHT22;34290;48.562;13.384;2023-03-17T01:12:40;-2.60;99.90
34434;DHT22;34290;48.562;13.384;2023-03-17T01:17:35;-2.60;99.90
34434;DHT22;34290;48.562;13.384;2023-03-17T01:20:03;-2.50;99.90
34434;DHT22;34290;48.562;13.384;2023-03-17T01:22:31;-3.10;99.90
34434;DHT22;34290;48.562;13.384;2023-03-17T01:27:26;-2.10;99.90
34434;DHT22;34290;48.562;13.384;2023-03-17T01:34:50;-2.50;99.90
34434;DHT22;34290;48.562;13.384;2023-03-17T01:37:17;-2.80;99.90
34434;DHT22;34290;48.562;13.384;2023-03-17T01:39:45;-3.10;99.90
34434;DHT22;34290;48.562;13.384;2023-03-17T01:47:25;-2.70;99.90
34434;DHT22;34290;48.562;13.384;2023-03-17T01:52:21;-2.80;99.90
34434;DHT22;34290;48.562;13.384;2023-03-17T01:57:23;-2.80;99.90
34434;DHT22;34290;48.562;13.384;2023-03-17T01:59:54;-2.80;99.90
34434;DHT22;34290;48.562;13.384;2023-03-17T02:02:27;-2.80;99.90
34434;DHT22;34290;48.562;13.384;2023-03-17T02:04:57;-2.70;99.90
34434;DHT22;34290;48.562;13.384;2023-03-17T02:07:24;-2.70;99.90
34434;DHT22;34290;48.562;13.384;2023-03-17T02:09:53;-2.70;99.90
34434;DHT22;34290;48.562;13.384;2023-03-17T02:14:49;-3.10;99.90
34434;DHT22;34290;48.562;13.384;2023-03-17T02:19:47;-2.80;99.90
34434;DHT22;34290;48.562;13.384;2023-03-17T02:24:45;-2.80;99.90
34434;DHT22;34290;48.562;13.384;2023-03-17T02:27:16;-2.90;99.90
34434;DHT22;34290;48.562;13.384;2023-03-17T02:29:45;-2.90;99.90
34434;DHT22;34290;48.562;13.384;2023-03-17T02:34:39;-3.00;99.90
34434;DHT22;34290;48.562;13.384;2023-03-17T02:39:35;-2.90;99.90
34434;DHT22;34290;48.562;13.384;2023-03-17T02:42:03;-2.90;99.90
34434;DHT22;34290;48.562;13.384;2023-03-17T02:44:31;-2.90;99.90
34434;DHT22;34290;48.562;13.384;2023-03-17T02:46:58;-3.00;99.90
34434;DHT22;34290;48.562;13.384;2023-03-17T02:49:26;-2.90;99.90
34434;DHT22;34290;48.562;13.384;2023-03-17T02:59:16;-2.90;99.90
34434;DHT22;34290;48.562;13.384;2023-03-17T03:09:09;-2.90;99.90
34434;DHT22;34290;48.562;13.384;2023-03-17T03:11:36;-2.80;99.90
34434;DHT22;34290;48.562;13.384;2023-03-17T03:14:05;-3.00;99.90
34434;DHT22;34290;48.562;13.384;2023-03-17T03:16:32;-3.50;99.90
34434;DHT22;34290;48.562;13.384;2023-03-17T03:18:59;-3.00;99.90
34434;DHT22;34290;48.562;13.384;2023-03-17T03:21:27;-2.90;99.90
34434;DHT22;34290;48.562;13.384;2023-03-17T03:23:54;-2.90;99.90
34434;DHT22;34290;48.562;13.384;2023-03-17T03:26:21;-3.00;99.90
34434;DHT22;34290;48.562;13.384;2023-03-17T03:31:17;-3.00;99.90
34434;DHT22;34290;48.562;13.384;2023-03-17T03:33:44;-3.10;99.90
34434;DHT22;34290;48.562;13.384;2023-03-17T03:36:11;-3.00;99.90
34434;DHT22;34290;48.562;13.384;2023-03-17T03:38:39;-3.10;99.90
34434;DHT22;34290;48.562;13.384;2023-03-17T03:41:07;-3.20;99.90
34434;DHT22;34290;48.562;13.384;2023-03-17T03:46:01;-3.20;99.90
34434;DHT22;34290;48.562;13.384;2023-03-17T03:48:30;-3.10;99.90
34434;DHT22;34290;48.562;13.384;2023-03-17T03:50:58;-3.10;99.90
34434;DHT22;34290;48.562;13.384;2023-03-17T03:53:26;-3.20;99.90
34434;DHT22;34290;48.562;13.384;2023-03-17T03:55:54;-3.30;99.90
34434;DHT22;34290;48.562;13.384;2023-03-17T03:58:21;-3.30;99.90
34434;DHT22;34290;48.562;13.384;2023-03-17T04:00:49;-3.30;99.90
34434;DHT22;34290;48.562;13.384;2023-03-17T04:03:16;-3.20;99.90
34434;DHT22;34290;48.562;13.384;2023-03-17T04:05:44;-3.20;99.90
34434;DHT22;34290;48.562;13.384;2023-03-17T04:10:39;-3.20;99.90
34434;DHT22;34290;48.562;13.384;2023-03-17T04:13:06;-3.30;99.90
34434;DHT22;34290;48.562;13.384;2023-03-17T04:15:33;-2.70;99.90
34434;DHT22;34290;48.562;13.384;2023-03-17T04:18:00;-3.20;99.90
34434;DHT22;34290;48.562;13.384;2023-03-17T04:20:27;-3.30;99.90
34434;DHT22;34290;48.562;13.384;2023-03-17T04:22:55;-3.30;99.90
34434;DHT22;34290;48.562;13.384;2023-03-17T04:25:22;-3.30;99.90
34434;DHT22;34290;48.562;13.384;2023-03-17T04:27:49;-3.50;99.90
34434;DHT22;34290;48.562;13.384;2023-03-17T04:30:16;-3.30;99.90
34434;DHT22;34290;48.562;13.384;2023-03-17T04:32:44;-3.20;99.90
34434;DHT22;34290;48.562;13.384;2023-03-17T04:35:13;-3.20;99.90
34434;DHT22;34290;48.562;13.384;2023-03-17T04:37:40;-3.70;99.90
34434;DHT22;34290;48.562;13.384;2023-03-17T04:40:11;-3.40;99.90
34434;DHT22;34290;48.562;13.384;2023-03-17T04:42:38;-3.40;99.90
34434;DHT22;34290;48.562;13.384;2023-03-17T04:45:08;-3.40;99.90
34434;DHT22;34290;48.562;13.384;2023-03-17T04:47:36;-3.50;99.90
34434;DHT22;34290;48.562;13.384;2023-03-17T04:50:04;-3.50;99.90
34434;DHT22;34290;48.562;13.384;2023-03-17T04:52:33;-3.50;99.90
34434;DHT22;34290;48.562;13.384;2023-03-17T04:55:00;-3.80;99.90
34434;DHT22;34290;48.562;13.384;2023-03-17T04:57:28;-3.40;99.90
34434;DHT22;34290;48.562;13.384;2023-03-17T05:02:23;-3.40;99.90
34434;DHT22;34290;48.562;13.384;2023-03-17T05:04:50;-3.50;99.90
34434;DHT22;34290;48.562;13.384;2023-03-17T05:07:18;-3.40;99.90
34434;DHT22;34290;48.562;13.384;2023-03-17T05:09:45;-3.40;99.90
34434;DHT22;34290;48.562;13.384;2023-03-17T05:12:12;-3.20;99.90
34434;DHT22;34290;48.562;13.384;2023-03-17T05:14:40;-3.50;99.90
34434;DHT22;34290;48.562;13.384;2023-03-17T05:19:35;-3.60;99.90
34434;DHT22;34290;48.562;13.384;2023-03-17T05:22:02;-3.60;99.90
34434;DHT22;34290;48.562;13.384;2023-03-17T05:24:29;-3.60;99.90
34434;DHT22;34290;48.562;13.384;2023-03-17T05:26:56;-3.40;99.90
34434;DHT22;34290;48.562;13.384;2023-03-17T05:29:23;-3.40;99.90
34434;DHT22;34290;48.562;13.384;2023-03-17T05:31:51;-3.30;99.90
34434;DHT22;34290;48.562;13.384;2023-03-17T05:34:18;-3.20;99.90
34434;DHT22;34290;48.562;13.384;2023-03-17T05:36:45;-2.90;99.90
34434;DHT22;34290;48.562;13.384;2023-03-17T05:41:39;-2.50;99.90
34434;DHT22;34290;48.562;13.384;2023-03-17T05:44:06;-2.60;99.90
34434;DHT22;34290;48.562;13.384;2023-03-17T05:46:33;-2.30;99.90
34434;DHT22;34290;48.562;13.384;2023-03-17T05:49:02;-2.10;99.90
34434;DHT22;34290;48.562;13.384;2023-03-17T05:51:29;-2.10;99.90
34434;DHT22;34290;48.562;13.384;2023-03-17T05:53:56;-2.00;99.90
34434;DHT22;34290;48.562;13.384;2023-03-17T06:03:46;-1.70;99.90
34434;DHT22;34290;48.562;13.384;2023-03-17T06:06:15;-1.50;99.90
34434;DHT22;34290;48.562;13.384;2023-03-17T06:08:43;-1.10;99.90
34434;DHT22;34290;48.562;13.384;2023-03-17T06:18:32;1.30;99.90
34434;DHT22;34290;48.562;13.384;2023-03-17T06:21:01;1.80;99.90
34434;DHT22;34290;48.562;13.384;2023-03-17T06:23:29;2.30;99.90
34434;DHT22;34290;48.562;13.384;2023-03-17T06:30:51;3.80;99.90
34434;DHT22;34290;48.562;13.384;2023-03-17T06:33:18;4.60;99.90
34434;DHT22;34290;48.562;13.384;2023-03-17T06:35:45;5.30;99.90
34434;DHT22;34290;48.562;13.384;2023-03-17T06:38:12;5.50;99.90
34434;DHT22;34290;48.562;13.384;2023-03-17T06:40:41;5.80;99.90
34434;DHT22;34290;48.562;13.384;2023-03-17T06:43:08;5.80;99.90
34434;DHT22;34290;48.562;13.384;2023-03-17T06:48:02;6.10;99.90
34434;DHT22;34290;48.562;13.384;2023-03-17T06:50:29;6.50;99.90
34434;DHT22;34290;48.562;13.384;2023-03-17T06:52:56;7.10;99.80
34434;DHT22;34290;48.562;13.384;2023-03-17T06:55:23;8.00;97.70
34434;DHT22;34290;48.562;13.384;2023-03-17T06:57:53;9.00;96.70
34434;DHT22;34290;48.562;13.384;2023-03-17T07:00:20;9.50;95.10
34434;DHT22;34290;48.562;13.384;2023-03-17T07:02:48;10.00;93.50
34434;DHT22;34290;48.562;13.384;2023-03-17T07:05:15;10.20;92.80
34434;DHT22;34290;48.562;13.384;2023-03-17T07:12:41;11.80;91.00
34434;DHT22;34290;48.562;13.384;2023-03-17T07:15:10;12.40;90.70
34434;DHT22;34290;48.562;13.384;2023-03-17T07:17:38;13.50;88.70
34434;DHT22;34290;48.562;13.384;2023-03-17T07:22:34;13.90;84.20
34434;DHT22;34290;48.562;13.384;2023-03-17T07:27:28;13.30;85.50
34434;DHT22;34290;48.562;13.384;2023-03-17T07:32:26;11.40;86.90
34434;DHT22;34290;48.562;13.384;2023-03-17T07:37:21;11.30;87.50
34434;DHT22;34290;48.562;13.384;2023-03-17T07:39:48;11.50;86.40
34434;DHT22;34290;48.562;13.384;2023-03-17T07:44:43;11.50;86.30
34434;DHT22;34290;48.562;13.384;2023-03-17T07:47:11;11.40;86.60
34434;DHT22;34290;48.562;13.384;2023-03-17T07:49:39;10.60;84.60
34434;DHT22;34290;48.562;13.384;2023-03-17T07:52:07;11.80;86.60
34434;DHT22;34290;48.562;13.384;2023-03-17T07:57:02;12.90;83.90
34434;DHT22;34290;48.562;13.384;2023-03-17T07:59:29;13.80;79.80
34434;DHT22;34290;48.562;13.384;2023-03-17T08:04:25;14.80;78.70
34434;DHT22;34290;48.562;13.384;2023-03-17T08:06:54;15.80;77.20
34434;DHT22;34290;48.562;13.384;2023-03-17T08:14:28;17.20;72.60
34434;DHT22;34290;48.562;13.384;2023-03-17T08:16:55;17.80;71.20
34434;DHT22;34290;48.562;13.384;2023-03-17T08:19:22;18.40;71.00
34434;DHT22;34290;48.562;13.384;2023-03-17T08:21:49;18.40;70.50
34434;DHT22;34290;48.562;13.384;2023-03-17T08:24:17;18.50;69.10
34434;DHT22;34290;48.562;13.384;2023-03-17T08:26:46;18.80;66.20
34434;DHT22;34290;48.562;13.384;2023-03-17T08:29:14;19.30;67.10
34434;DHT22;34290;48.562;13.384;2023-03-17T08:31:41;20.00;64.70
34434;DHT22;34290;48.562;13.384;2023-03-17T08:34:08;20.80;65.00
34434;DHT22;34290;48.562;13.384;2023-03-17T08:36:35;21.50;62.40
34434;DHT22;34290;48.562;13.384;2023-03-17T08:39:03;21.70;62.20
34434;DHT22;34290;48.562;13.384;2023-03-17T08:41:31;21.90;61.30
34434;DHT22;34290;48.562;13.384;2023-03-17T08:43:58;22.00;61.20
34434;DHT22;34290;48.562;13.384;2023-03-17T08:46:27;21.80;61.70
34434;DHT22;34290;48.562;13.384;2023-03-17T08:48:55;21.60;61.20
34434;DHT22;34290;48.562;13.384;2023-03-17T08:51:24;21.50;61.40
34434;DHT22;34290;48.562;13.384;2023-03-17T08:53:51;21.50;60.80
34434;DHT22;34290;48.562;13.384;2023-03-17T08:56:18;21.30;61.70
34434;DHT22;34290;48.562;13.384;2023-03-17T08:58:47;21.50;62.60
34434;DHT22;34290;48.562;13.384;2023-03-17T09:01:16;21.90;61.50
34434;DHT22;34290;48.562;13.384;2023-03-17T09:03:43;22.40;60.70
34434;DHT22;34290;48.562;13.384;2023-03-17T09:06:11;23.00;57.70
34434;DHT22;34290;48.562;13.384;2023-03-17T09:08:39;23.20;57.60
34434;DHT22;34290;48.562;13.384;2023-03-17T09:11:12;22.20;57.60
34434;DHT22;34290;48.562;13.384;2023-03-17T09:16:08;22.50;57.20
34434;DHT22;34290;48.562;13.384;2023-03-17T09:18:35;21.50;57.70
34434;DHT22;34290;48.562;13.384;2023-03-17T09:21:03;22.20;56.50
34434;DHT22;34290;48.562;13.384;2023-03-17T09:23:31;21.80;56.80
34434;DHT22;34290;48.562;13.384;2023-03-17T09:25:58;22.30;58.20
34434;DHT22;34290;48.562;13.384;2023-03-17T09:30:57;23.40;56.60
34434;DHT22;34290;48.562;13.384;2023-03-17T09:33:25;23.40;57.50
34434;DHT22;34290;48.562;13.384;2023-03-17T09:35:53;24.10;57.00
34434;DHT22;34290;48.562;13.384;2023-03-17T09:38:22;24.80;56.00
34434;DHT22;34290;48.562;13.384;2023-03-17T09:40:54;25.30;55.80
34434;DHT22;34290;48.562;13.384;2023-03-17T09:43:29;25.60;54.30
34434;DHT22;34290;48.562;13.384;2023-03-17T09:46:01;25.30;53.20
34434;DHT22;34290;48.562;13.384;2023-03-17T09:51:09;25.30;52.50
34434;DHT22;34290;48.562;13.384;2023-03-17T09:53:44;25.60;53.10
34434;DHT22;34290;48.562;13.384;2023-03-17T09:56:14;25.20;53.50
34434;DHT22;34290;48.562;13.384;2023-03-17T09:58:46;25.20;54.20
34434;DHT22;34290;48.562;13.384;2023-03-17T10:01:15;25.00;55.50
34434;DHT22;34290;48.562;13.384;2023-03-17T10:03:45;25.40;54.20
34434;DHT22;34290;48.562;13.384;2023-03-17T10:06:31;26.00;52.70
34434;DHT22;34290;48.562;13.384;2023-03-17T10:09:04;26.30;52.30
34434;DHT22;34290;48.562;13.384;2023-03-17T10:11:38;26.40;52.60
34434;DHT22;34290;48.562;13.384;2023-03-17T10:16:41;26.50;52.30
34434;DHT22;34290;48.562;13.384;2023-03-17T10:19:20;26.80;50.90
34434;DHT22;34290;48.562;13.384;2023-03-17T10:21:54;26.50;51.20
34434;DHT22;34290;48.562;13.384;2023-03-17T10:24:23;25.90;51.10
34434;DHT22;34290;48.562;13.384;2023-03-17T10:26:52;25.90;51.30
34434;DHT22;34290;48.562;13.384;2023-03-17T10:29:22;25.30;50.40
34434;DHT22;34290;48.562;13.384;2023-03-17T10:31:51;24.00;50.90
34434;DHT22;34290;48.562;13.384;2023-03-17T10:34:22;23.30;54.20
34434;DHT22;34290;48.562;13.384;2023-03-17T10:36:54;23.30;53.80
34434;DHT22;34290;48.562;13.384;2023-03-17T10:39:22;23.30;55.50
34434;DHT22;34290;48.562;13.384;2023-03-17T10:44:38;23.50;53.40
34434;DHT22;34290;48.562;13.384;2023-03-17T10:47:19;23.30;54.10
34434;DHT22;34290;48.562;13.384;2023-03-17T10:49:49;21.60;54.20
34434;DHT22;34290;48.562;13.384;2023-03-17T10:52:20;21.90;56.20
34434;DHT22;34290;48.562;13.384;2023-03-17T10:54:48;22.30;56.10
34434;DHT22;34290;48.562;13.384;2023-03-17T10:57:17;22.60;55.10
34434;DHT22;34290;48.562;13.384;2023-03-17T10:59:49;23.10;55.00
34434;DHT22;34290;48.562;13.384;2023-03-17T11:02:24;22.40;55.70
34434;DHT22;34290;48.562;13.384;2023-03-17T11:05:02;22.40;54.80
34434;DHT22;34290;48.562;13.384;2023-03-17T11:07:35;21.80;55.70
34434;DHT22;34290;48.562;13.384;2023-03-17T11:10:04;21.60;55.70
34434;DHT22;34290;48.562;13.384;2023-03-17T11:12:40;21.90;57.10
34434;DHT22;34290;48.562;13.384;2023-03-17T11:15:10;21.70;56.20
34434;DHT22;34290;48.562;13.384;2023-03-17T11:17:44;21.70;56.90
34434;DHT22;34290;48.562;13.384;2023-03-17T11:20:40;21.90;57.90
34434;DHT22;34290;48.562;13.384;2023-03-17T11:23:20;21.80;57.30
34434;DHT22;34290;48.562;13.384;2023-03-17T11:25:54;21.80;57.60
34434;DHT22;34290;48.562;13.384;2023-03-17T11:28:27;21.30;58.40
34434;DHT22;34290;48.562;13.384;2023-03-17T11:33:32;21.20;58.60
34434;DHT22;34290;48.562;13.384;2023-03-17T11:36:12;21.30;59.10
34434;DHT22;34290;48.562;13.384;2023-03-17T11:38:49;20.70;58.40
34434;DHT22;34290;48.562;13.384;2023-03-17T11:41:44;20.20;59.20
34434;DHT22;34290;48.562;13.384;2023-03-17T11:44:44;20.10;59.00
34434;DHT22;34290;48.562;13.384;2023-03-17T11:54:56;18.90;60.30
34434;DHT22;34290;48.562;13.384;2023-03-17T11:59:56;18.50;62.10
34434;DHT22;34290;48.562;13.384;2023-03-17T12:02:28;18.60;62.50
34434;DHT22;34290;48.562;13.384;2023-03-17T12:05:00;18.90;61.70
34434;DHT22;34290;48.562;13.384;2023-03-17T12:07:34;18.90;62.50
34434;DHT22;34290;48.562;13.384;2023-03-17T12:10:12;18.60;63.30
34434;DHT22;34290;48.562;13.384;2023-03-17T12:17:48;18.20;62.70
34434;DHT22;34290;48.562;13.384;2023-03-17T12:22:51;18.10;63.70
34434;DHT22;34290;48.562;13.384;2023-03-17T12:27:56;18.80;63.40
34434;DHT22;34290;48.562;13.384;2023-03-17T12:30:29;18.70;62.60
34434;DHT22;34290;48.562;13.384;2023-03-17T12:35:35;18.60;63.80
34434;DHT22;34290;48.562;13.384;2023-03-17T12:43:25;18.20;64.90
34434;DHT22;34290;48.562;13.384;2023-03-17T12:51:43;17.80;64.40
34434;DHT22;34290;48.562;13.384;2023-03-17T12:54:17;18.00;65.30
34434;DHT22;34290;48.562;13.384;2023-03-17T13:04:17;17.80;65.20
34434;DHT22;34290;48.562;13.384;2023-03-17T13:06:52;17.90;66.40
34434;DHT22;34290;48.562;13.384;2023-03-17T13:09:44;17.90;65.70
34434;DHT22;34290;48.562;13.384;2023-03-17T13:14:57;17.90;66.40
34434;DHT22;34290;48.562;13.384;2023-03-17T13:20:13;17.70;64.80
34434;DHT22;34290;48.562;13.384;2023-03-17T13:22:59;17.20;65.70
34434;DHT22;34290;48.562;13.384;2023-03-17T13:28:21;17.20;66.50
34434;DHT22;34290;48.562;13.384;2023-03-17T13:31:06;17.40;67.50
34434;DHT22;34290;48.562;13.384;2023-03-17T13:33:35;17.50;66.60
34434;DHT22;34290;48.562;13.384;2023-03-17T13:38:52;17.30;66.70
34434;DHT22;34290;48.562;13.384;2023-03-17T13:44:28;17.60;64.50
34434;DHT22;34290;48.562;13.384;2023-03-17T13:49:36;17.20;64.20
34434;DHT22;34290;48.562;13.384;2023-03-17T13:52:10;17.00;63.40
34434;DHT22;34290;48.562;13.384;2023-03-17T13:57:22;16.70;63.70
34434;DHT22;34290;48.562;13.384;2023-03-17T14:00:02;16.80;64.30
34434;DHT22;34290;48.562;13.384;2023-03-17T14:07:31;16.80;65.80
34434;DHT22;34290;48.562;13.384;2023-03-17T14:12:37;16.80;65.70
34434;DHT22;34290;48.562;13.384;2023-03-17T14:17:41;16.90;65.90
34434;DHT22;34290;48.562;13.384;2023-03-17T14:20:20;16.80;66.20
34434;DHT22;34290;48.562;13.384;2023-03-17T14:22:52;16.60;64.90
34434;DHT22;34290;48.562;13.384;2023-03-17T14:25:21;16.70;67.50
34434;DHT22;34290;48.562;13.384;2023-03-17T14:27:50;16.70;64.90
34434;DHT22;34290;48.562;13.384;2023-03-17T14:30:22;16.60;65.50
34434;DHT22;34290;48.562;13.384;2023-03-17T14:35:18;16.50;66.80
34434;DHT22;34290;48.562;13.384;2023-03-17T14:37:46;16.50;66.80
34434;DHT22;34290;48.562;13.384;2023-03-17T14:42:50;16.20;65.30
34434;DHT22;34290;48.562;13.384;2023-03-17T14:45:27;16.30;65.40
34434;DHT22;34290;48.562;13.384;2023-03-17T14:47:55;16.20;65.80
34434;DHT22;34290;48.562;13.384;2023-03-17T14:50:25;16.10;65.50
34434;DHT22;34290;48.562;13.384;2023-03-17T14:52:53;16.10;65.40
34434;DHT22;34290;48.562;13.384;2023-03-17T14:55:21;16.20;66.20
34434;DHT22;34290;48.562;13.384;2023-03-17T14:57:49;16.10;66.30
34434;DHT22;34290;48.562;13.384;2023-03-17T15:00:33;16.10;67.00
34434;DHT22;34290;48.562;13.384;2023-03-17T15:03:12;16.10;66.30
34434;DHT22;34290;48.562;13.384;2023-03-17T15:10:58;15.90;67.50
34434;DHT22;34290;48.562;13.384;2023-03-17T15:15:55;15.80;67.90
34434;DHT22;34290;48.562;13.384;2023-03-17T15:18:24;15.80;69.00
34434;DHT22;34290;48.562;13.384;2023-03-17T15:23:20;15.70;69.90
34434;DHT22;34290;48.562;13.384;2023-03-17T15:25:49;15.60;72.50
34434;DHT22;34290;48.562;13.384;2023-03-17T15:30:49;15.40;73.50
34434;DHT22;34290;48.562;13.384;2023-03-17T15:35:46;15.10;73.20
34434;DHT22;34290;48.562;13.384;2023-03-17T15:43:12;14.80;73.70
34434;DHT22;34290;48.562;13.384;2023-03-17T15:45:40;14.70;74.60
34434;DHT22;34290;48.562;13.384;2023-03-17T15:50:40;14.40;74.80
34434;DHT22;34290;48.562;13.384;2023-03-17T15:58:02;14.20;76.30
34434;DHT22;34290;48.562;13.384;2023-03-17T16:07:57;13.90;76.30
34434;DHT22;34290;48.562;13.384;2023-03-17T16:10:25;13.90;76.00
34434;DHT22;34290;48.562;13.384;2023-03-17T16:12:53;13.80;76.10
34434;DHT22;34290;48.562;13.384;2023-03-17T16:15:22;13.70;76.60
34434;DHT22;34290;48.562;13.384;2023-03-17T16:20:21;13.50;76.80
34434;DHT22;34290;48.562;13.384;2023-03-17T16:22:50;13.40;77.30
34434;DHT22;34290;48.562;13.384;2023-03-17T16:25:22;13.30;77.50
34434;DHT22;34290;48.562;13.384;2023-03-17T16:30:20;13.20;77.80
34434;DHT22;34290;48.562;13.384;2023-03-17T16:32:47;13.10;77.80
34434;DHT22;34290;48.562;13.384;2023-03-17T16:35:16;13.10;78.00
34434;DHT22;34290;48.562;13.384;2023-03-17T16:40:20;13.00;78.90
34434;DHT22;34290;48.562;13.384;2023-03-17T16:42:48;12.90;78.60
34434;DHT22;34290;48.562;13.384;2023-03-17T16:45:20;12.80;78.70
34434;DHT22;34290;48.562;13.384;2023-03-17T16:52:43;12.60;79.50
34434;DHT22;34290;48.562;13.384;2023-03-17T16:55:11;12.50;80.20
34434;DHT22;34290;48.562;13.384;2023-03-17T16:57:40;12.40;80.40
34434;DHT22;34290;48.562;13.384;2023-03-17T17:00:14;12.40;80.10
34434;DHT22;34290;48.562;13.384;2023-03-17T17:05:13;12.20;80.10
34434;DHT22;34290;48.562;13.384;2023-03-17T17:07:41;12.10;80.40
34434;DHT22;34290;48.562;13.384;2023-03-17T17:10:09;12.00;81.70
34434;DHT22;34290;48.562;13.384;2023-03-17T17:17:36;12.00;80.40
34434;DHT22;34290;48.562;13.384;2023-03-17T17:24:59;11.90;80.60
34434;DHT22;34290;48.562;13.384;2023-03-17T17:27:26;11.80;80.50
34434;DHT22;34290;48.562;13.384;2023-03-17T17:32:22;11.70;81.10
34434;DHT22;34290;48.562;13.384;2023-03-17T17:34:49;11.50;81.40
34434;DHT22;34290;48.562;13.384;2023-03-17T17:37:16;11.40;81.40
34434;DHT22;34290;48.562;13.384;2023-03-17T17:39:43;11.30;82.10
34434;DHT22;34290;48.562;13.384;2023-03-17T17:42:10;11.30;82.50
34434;DHT22;34290;48.562;13.384;2023-03-17T17:44:37;11.20;82.90
34434;DHT22;34290;48.562;13.384;2023-03-17T17:47:04;11.00;83.70
34434;DHT22;34290;48.562;13.384;2023-03-17T17:49:33;10.80;84.30
34434;DHT22;34290;48.562;13.384;2023-03-17T17:54:27;10.40;85.80
34434;DHT22;34290;48.562;13.384;2023-03-17T17:59:21;10.40;86.30
34434;DHT22;34290;48.562;13.384;2023-03-17T18:01:48;10.20;90.60
34434;DHT22;34290;48.562;13.384;2023-03-17T18:04:15;10.00;92.00
34434;DHT22;34290;48.562;13.384;2023-03-17T18:06:44;9.60;92.70
34434;DHT22;34290;48.562;13.384;2023-03-17T18:09:11;9.30;93.30
34434;DHT22;34290;48.562;13.384;2023-03-17T18:14:07;9.00;94.00
34434;DHT22;34290;48.562;13.384;2023-03-17T18:19:02;8.80;94.90
34434;DHT22;34290;48.562;13.384;2023-03-17T18:23:58;8.80;94.70
34434;DHT22;34290;48.562;13.384;2023-03-17T18:26:25;8.80;94.50
34434;DHT22;34290;48.562;13.384;2023-03-17T18:28:56;8.70;94.90
34434;DHT22;34290;48.562;13.384;2023-03-17T18:31:26;8.60;94.90
34434;DHT22;34290;48.562;13.384;2023-03-17T18:33:57;8.50;94.10
34434;DHT22;34290;48.562;13.384;2023-03-17T18:36:25;8.50;95.00
34434;DHT22;34290;48.562;13.384;2023-03-17T18:41:22;8.70;93.30
34434;DHT22;34290;48.562;13.384;2023-03-17T18:46:16;8.40;94.50
34434;DHT22;34290;48.562;13.384;2023-03-17T18:51:10;8.20;95.20
34434;DHT22;34290;48.562;13.384;2023-03-17T18:58:34;7.60;97.30
34434;DHT22;34290;48.562;13.384;2023-03-17T19:01:02;7.50;98.20
34434;DHT22;34290;48.562;13.384;2023-03-17T19:08:33;7.20;99.90
34434;DHT22;34290;48.562;13.384;2023-03-17T19:13:27;7.10;99.90
34434;DHT22;34290;48.562;13.384;2023-03-17T19:18:23;6.90;99.90
34434;DHT22;34290;48.562;13.384;2023-03-17T19:20:50;6.80;99.90
34434;DHT22;34290;48.562;13.384;2023-03-17T19:23:17;6.70;99.90
34434;DHT22;34290;48.562;13.384;2023-03-17T19:28:12;6.40;99.90
34434;DHT22;34290;48.562;13.384;2023-03-17T19:33:07;6.10;99.90
34434;DHT22;34290;48.562;13.384;2023-03-17T19:35:34;6.20;99.90
34434;DHT22;34290;48.562;13.384;2023-03-17T19:38:01;5.90;99.90
34434;DHT22;34290;48.562;13.384;2023-03-17T19:40:28;5.80;99.90
34434;DHT22;34290;48.562;13.384;2023-03-17T19:42:56;5.70;99.90
34434;DHT22;34290;48.562;13.384;2023-03-17T19:47:53;5.90;99.90
34434;DHT22;34290;48.562;13.384;2023-03-17T19:50:22;5.80;99.90
34434;DHT22;34290;48.562;13.384;2023-03-17T19:52:49;5.80;99.90
34434;DHT22;34290;48.562;13.384;2023-03-17T20:00:13;5.50;99.90
34434;DHT22;34290;48.562;13.384;2023-03-17T20:02:40;5.40;99.90
34434;DHT22;34290;48.562;13.384;2023-03-17T20:07:36;5.20;99.90
34434;DHT22;34290;48.562;13.384;2023-03-17T20:12:32;5.00;99.90
34434;DHT22;34290;48.562;13.384;2023-03-17T20:14:59;5.00;99.90
34434;DHT22;34290;48.562;13.384;2023-03-17T20:17:27;5.00;99.90
34434;DHT22;34290;48.562;13.384;2023-03-17T20:22:21;5.30;99.90
34434;DHT22;34290;48.562;13.384;2023-03-17T20:24:49;4.80;99.90
34434;DHT22;34290;48.562;13.384;2023-03-17T20:29:45;4.80;99.90
34434;DHT22;34290;48.562;13.384;2023-03-17T20:37:10;4.90;99.90
34434;DHT22;34290;48.562;13.384;2023-03-17T20:42:10;4.70;99.90
34434;DHT22;34290;48.562;13.384;2023-03-17T20:49:34;4.60;99.90
34434;DHT22;34290;48.562;13.384;2023-03-17T20:54:30;4.50;99.90
34434;DHT22;34290;48.562;13.384;2023-03-17T20:59:26;4.50;99.90
34434;DHT22;34290;48.562;13.384;2023-03-17T21:01:54;4.40;99.90
34434;DHT22;34290;48.562;13.384;2023-03-17T21:06:48;4.40;99.90
34434;DHT22;34290;48.562;13.384;2023-03-17T21:11:43;4.30;99.90
34434;DHT22;34290;48.562;13.384;2023-03-17T21:19:12;4.10;99.90
34434;DHT22;34290;48.562;13.384;2023-03-17T21:21:39;4.10;99.90
34434;DHT22;34290;48.562;13.384;2023-03-17T21:26:34;4.10;99.90
34434;DHT22;34290;48.562;13.384;2023-03-17T21:36:24;3.90;99.90
34434;DHT22;34290;48.562;13.384;2023-03-17T21:41:26;3.70;99.90
34434;DHT22;34290;48.562;13.384;2023-03-17T21:51:20;3.70;99.90